Time;durP1;ratioP1;P1;durP2;ratioP2;P2;SDS_P1;SDS_P2;PMS_P1;PMS_P2;Temp;Humidity;BMP_temperature;BMP_pressure;BME280_temperature;BME280_humidity;BME280_pressure;Samples;Min_cycle;Max_cycle;Signal;HPM_P1;HPM_P2
2024/03/14 00:00:55;;;;;;;14.65;6.90;;;;;;;7.52;58.30;101261.13;5026763;28;20072;-72
2024/03/14 00:03:28;;;;;;;11.80;5.80;;;;;;;7.81;57.70;101246.66;5034982;28;20410;-71
2024/03/14 00:05:54;;;;;;;12.25;6.63;;;;;;;7.51;59.07;101254.19;5029998;28;20965;-71
2024/03/14 00:08:21;;;;;;;10.70;6.60;;;;;;;7.94;57.80;101245.50;5029799;28;20055;-70
2024/03/14 00:10:47;;;;;;;10.38;6.18;;;;;;;7.68;58.07;101244.31;5031426;28;20077;-70
2024/03/14 00:13:13;;;;;;;13.43;7.30;;;;;;;7.39;59.51;101244.91;5029044;28;20102;-70
2024/03/14 00:15:38;;;;;;;13.43;7.05;;;;;;;7.64;59.11;101250.47;5030864;28;20068;-69
2024/03/14 00:18:04;;;;;;;13.60;7.13;;;;;;;7.67;58.81;101247.81;5024956;28;20051;-70
2024/03/14 00:20:30;;;;;;;11.13;6.60;;;;;;;7.73;58.83;101247.69;5031297;28;20033;-69
2024/03/14 00:22:58;;;;;;;17.85;7.90;;;;;;;7.81;58.68;101247.50;5026701;28;20403;-72
2024/03/14 00:25:24;;;;;;;15.15;8.52;;;;;;;7.70;58.76;101245.13;5027634;28;20041;-72
2024/03/14 00:27:49;;;;;;;13.95;8.32;;;;;;;7.29;60.35;101246.84;5024499;28;20044;-71
2024/03/14 00:30:18;;;;;;;19.45;8.98;;;;;;;7.61;59.61;101240.16;5035193;28;20395;-70
2024/03/14 00:32:44;;;;;;;17.35;8.50;;;;;;;7.80;59.10;101247.53;5026932;28;20550;-64
2024/03/14 00:35:12;;;;;;;16.50;9.02;;;;;;;7.91;58.44;101235.13;5030784;28;20125;-65
2024/03/14 00:37:38;;;;;;;15.77;8.27;;;;;;;7.58;59.27;101235.03;5025474;28;20092;-69
2024/03/14 00:40:08;;;;;;;17.25;9.10;;;;;;;7.55;59.46;101240.28;5027628;28;20024;-69
2024/03/14 00:42:34;;;;;;;21.00;10.70;;;;;;;7.66;59.36;101233.09;5031402;28;20037;-71
2024/03/14 00:45:00;;;;;;;16.67;8.88;;;;;;;7.77;59.05;101229.41;5025336;28;20082;-70
2024/03/14 00:47:26;;;;;;;19.63;10.07;;;;;;;7.28;60.32;101226.91;5037761;28;20048;-72
2024/03/14 00:49:52;;;;;;;18.00;9.25;;;;;;;6.99;61.10;101235.31;5023800;28;20036;-70
2024/03/14 00:52:19;;;;;;;20.02;9.55;;;;;;;7.34;60.68;101231.16;5030629;28;20562;-70
2024/03/14 00:54:44;;;;;;;17.60;9.20;;;;;;;7.60;59.69;101232.38;5024930;28;20096;-70
2024/03/14 00:57:10;;;;;;;17.13;9.13;;;;;;;7.67;59.42;101231.38;5028288;28;22349;-70
2024/03/14 00:59:35;;;;;;;16.42;8.95;;;;;;;7.44;60.29;101226.59;5027449;28;20159;-71
2024/03/14 01:02:02;;;;;;;17.77;9.63;;;;;;;7.85;58.85;101224.88;5026646;28;20033;-70
2024/03/14 01:04:27;;;;;;;16.85;9.50;;;;;;;7.41;59.93;101229.28;5011603;28;20111;-71
2024/03/14 01:06:53;;;;;;;21.45;9.13;;;;;;;7.65;59.38;101220.97;5027781;28;20032;-70
2024/03/14 01:09:24;;;;;;;14.02;8.95;;;;;;;7.81;58.99;101221.50;5029501;28;20044;-70
2024/03/14 01:11:50;;;;;;;19.88;8.85;;;;;;;7.20;60.32;101221.03;5028902;28;20029;-68
2024/03/14 01:14:19;;;;;;;17.42;9.07;;;;;;;7.67;58.98;101213.16;5028842;28;20039;-77
2024/03/14 01:16:44;;;;;;;16.85;8.98;;;;;;;7.90;58.33;101213.47;5030522;28;20681;-72
2024/03/14 01:19:11;;;;;;;17.52;8.90;;;;;;;8.01;58.16;101213.22;5025466;28;20041;-68
2024/03/14 01:21:39;;;;;;;15.65;9.18;;;;;;;7.77;58.38;101217.25;5027209;28;20064;-70
2024/03/14 01:24:05;;;;;;;13.23;8.20;;;;;;;7.79;58.89;101222.41;5025458;28;20670;-72
2024/03/14 01:26:32;;;;;;;15.30;8.10;;;;;;;8.14;57.53;101205.97;5030286;28;20033;-74
2024/03/14 01:28:58;;;;;;;15.70;8.50;;;;;;;8.06;57.56;101216.56;5028387;28;20921;-68
2024/03/14 01:31:24;;;;;;;16.80;8.25;;;;;;;8.09;57.55;101208.69;5029428;28;20064;-68
2024/03/14 01:33:51;;;;;;;18.30;9.30;;;;;;;7.56;59.06;101210.78;5027438;28;20127;-74
2024/03/14 01:36:16;;;;;;;12.45;7.05;;;;;;;7.26;59.31;101201.84;5024866;28;20473;-72
2024/03/14 01:38:42;;;;;;;15.55;8.23;;;;;;;7.63;58.96;101201.94;5035721;28;20037;-72
2024/03/14 01:41:20;;;;;;;10.23;6.60;;;;;;;7.83;58.32;101203.25;5027656;28;20461;-72
2024/03/14 01:43:58;;;;;;;16.95;8.38;;;;;;;7.62;59.10;101204.56;5029275;28;20069;-72
2024/03/14 01:46:29;;;;;;;14.25;8.52;;;;;;;7.71;58.71;101199.16;5032950;28;20430;-72
2024/03/14 01:48:58;;;;;;;12.90;7.65;;;;;;;7.78;58.24;101199.88;5038478;28;20044;-72
2024/03/14 01:51:25;;;;;;;13.68;6.53;;;;;;;7.83;58.34;101195.44;5024617;28;20503;-72
2024/03/14 01:53:54;;;;;;;11.95;6.90;;;;;;;8.05;57.25;101196.63;5031292;28;20136;-72
2024/03/14 01:56:21;;;;;;;13.98;6.55;;;;;;;7.65;58.47;101192.38;5037413;28;20536;-72
2024/03/14 01:58:56;;;;;;;17.00;7.38;;;;;;;7.48;59.19;101199.66;5030119;28;20448;-72
2024/03/14 02:01:23;;;;;;;11.02;7.40;;;;;;;7.88;57.79;101190.97;5033397;28;20059;-73
2024/03/14 02:04:17;;;;;;;13.15;7.15;;;;;;;7.85;58.27;101188.47;5029170;28;21384;-66
2024/03/14 02:07:08;;;;;;;12.75;6.88;;;;;;;7.74;58.03;101186.94;5033815;28;20612;-69
2024/03/14 02:09:37;;;;;;;12.63;7.35;;;;;;;7.92;57.75;101182.22;5032347;28;20414;-69
2024/03/14 02:12:05;;;;;;;13.80;6.25;;;;;;;7.45;59.00;101186.72;5030394;28;20119;-72
2024/03/14 02:14:31;;;;;;;11.57;6.72;;;;;;;7.75;57.92;101185.19;5033106;28;20086;-72
2024/03/14 02:16:57;;;;;;;10.25;5.53;;;;;;;8.01;57.38;101183.72;5027546;28;20032;-72
2024/03/14 02:19:23;;;;;;;13.55;6.60;;;;;;;7.86;57.57;101182.34;5033584;28;20033;-71
2024/03/14 02:21:48;;;;;;;9.02;6.50;;;;;;;7.57;58.22;101183.88;5033220;28;20675;-72
2024/03/14 02:24:14;;;;;;;12.38;5.50;;;;;;;7.71;58.02;101186.16;5030785;28;20068;-71
2024/03/14 02:26:40;;;;;;;9.80;6.38;;;;;;;7.53;58.12;101184.78;5023749;28;20033;-72
2024/03/14 02:29:07;;;;;;;11.48;5.70;;;;;;;7.61;58.40;101182.06;5030819;28;20070;-72
2024/03/14 02:31:33;;;;;;;10.20;5.75;;;;;;;7.49;58.55;101183.16;5028498;28;20044;-71
2024/03/14 02:33:59;;;;;;;17.70;6.68;;;;;;;7.14;59.59;101182.16;5036600;28;20063;-71
2024/03/14 02:36:25;;;;;;;11.43;5.15;;;;;;;7.53;58.43;101179.59;5033357;28;20037;-71
2024/03/14 02:38:54;;;;;;;10.13;6.03;;;;;;;7.40;58.99;101178.16;5029605;28;20037;-71
2024/03/14 02:41:22;;;;;;;10.43;5.75;;;;;;;7.43;58.88;101178.09;5019886;28;20116;-72
2024/03/14 02:43:53;;;;;;;10.43;4.97;;;;;;;7.88;57.55;101181.41;5030456;28;20048;-72
2024/03/14 02:46:18;;;;;;;11.27;5.82;;;;;;;7.56;58.17;101174.38;5030515;28;20133;-71
2024/03/14 02:48:44;;;;;;;11.30;5.45;;;;;;;7.66;57.60;101172.41;5037065;28;20045;-73
2024/03/14 02:51:10;;;;;;;10.95;5.35;;;;;;;7.52;58.38;101167.47;5026492;28;20478;-72
2024/03/14 02:53:36;;;;;;;7.78;5.18;;;;;;;7.76;57.88;101163.50;5032532;28;20147;-71
2024/03/14 02:56:03;;;;;;;8.60;5.28;;;;;;;7.61;58.03;101164.69;5025931;28;20041;-71
2024/03/14 02:58:28;;;;;;;8.85;5.05;;;;;;;7.67;58.31;101174.97;5033910;28;20049;-72
2024/03/14 03:00:54;;;;;;;8.60;4.90;;;;;;;7.68;58.21;101150.66;5031891;28;20083;-71
2024/03/14 03:03:19;;;;;;;8.68;5.15;;;;;;;7.51;58.66;101165.75;5027414;28;20816;-70
2024/03/14 03:05:48;;;;;;;8.98;6.10;;;;;;;7.03;59.93;101159.00;5027567;28;20119;-69
2024/03/14 03:08:17;;;;;;;11.57;6.10;;;;;;;7.50;58.82;101156.25;5037852;28;20045;-70
2024/03/14 03:10:42;;;;;;;7.72;5.13;;;;;;;7.77;57.95;101156.53;5033425;28;20029;-70
2024/03/14 03:13:09;;;;;;;9.88;5.60;;;;;;;7.87;57.34;101153.69;5024738;28;20041;-70
2024/03/14 03:15:35;;;;;;;8.70;5.32;;;;;;;7.86;57.53;101157.16;5035903;28;20041;-70
2024/03/14 03:18:01;;;;;;;10.65;5.70;;;;;;;7.50;58.66;101149.31;5024171;28;20041;-71
2024/03/14 03:20:26;;;;;;;11.32;5.50;;;;;;;7.57;58.62;101155.25;5033494;28;20323;-71
2024/03/14 03:23:08;;;;;;;9.00;6.15;;;;;;;7.03;59.33;101152.94;5028946;28;20055;-70
2024/03/14 03:25:34;;;;;;;9.18;5.63;;;;;;;7.30;58.83;101141.94;5034364;28;20039;-75
2024/03/14 03:28:03;;;;;;;12.88;6.88;;;;;;;7.10;59.54;101147.56;5027194;28;20982;-73
2024/03/14 03:30:29;;;;;;;9.35;5.70;;;;;;;7.31;58.35;101137.59;5034076;28;20037;-68
2024/03/14 03:32:55;;;;;;;10.30;5.88;;;;;;;7.65;57.93;101137.72;5027174;28;20343;-67
2024/03/14 03:35:21;;;;;;;8.43;5.57;;;;;;;7.45;58.13;101140.75;5033109;28;20160;-67
2024/03/14 03:37:48;;;;;;;8.38;5.55;;;;;;;7.79;57.21;101142.59;5024947;28;20035;-67
2024/03/14 03:40:21;;;;;;;11.07;5.93;;;;;;;7.67;57.51;101138.56;5027413;28;20398;-67
2024/03/14 03:42:48;;;;;;;11.00;6.20;;;;;;;7.22;58.83;101135.19;5028074;28;20041;-67
2024/03/14 03:45:14;;;;;;;7.63;5.20;;;;;;;7.27;58.75;101136.81;5027805;28;20521;-66
2024/03/14 03:47:40;;;;;;;9.60;6.18;;;;;;;7.32;58.66;101134.97;5029650;28;20840;-67
2024/03/14 03:50:08;;;;;;;13.05;5.50;;;;;;;7.53;57.73;101127.56;5027240;28;20036;-69
2024/03/14 03:52:34;;;;;;;12.95;6.05;;;;;;;7.69;57.30;101126.38;5033485;28;20046;-69
2024/03/14 03:55:06;;;;;;;11.90;6.28;;;;;;;7.21;58.77;101130.91;5026146;28;20078;-69
2024/03/14 03:57:32;;;;;;;11.37;5.90;;;;;;;7.02;59.02;101126.09;5031979;28;20041;-67
2024/03/14 03:59:58;;;;;;;11.82;6.72;;;;;;;7.26;58.79;101122.09;5026682;28;20289;-71
2024/03/14 04:02:23;;;;;;;13.25;5.53;;;;;;;7.36;58.70;101114.13;5031336;28;20043;-72
2024/03/14 04:04:49;;;;;;;12.23;6.63;;;;;;;7.11;59.34;101122.47;5026389;28;20426;-72
2024/03/14 04:07:15;;;;;;;15.52;7.78;;;;;;;7.37;58.62;101121.00;5025897;28;20040;-70
2024/03/14 04:09:46;;;;;;;9.52;5.43;;;;;;;7.07;59.35;101118.22;5029353;28;20159;-72
2024/03/14 04:12:12;;;;;;;11.50;7.13;;;;;;;7.21;59.29;101113.56;5034020;28;20044;-69
2024/03/14 04:14:43;;;;;;;11.60;6.95;;;;;;;7.22;59.37;101115.28;5031999;28;20024;-72
2024/03/14 04:17:11;;;;;;;12.55;6.75;;;;;;;7.37;58.93;101116.66;5026800;28;20076;-71
2024/03/14 04:19:39;;;;;;;13.25;6.70;;;;;;;7.11;59.78;101115.50;5039787;28;20037;-71
2024/03/14 04:22:06;;;;;;;10.85;6.93;;;;;;;7.44;58.43;101112.19;5027528;28;20037;-72
2024/03/14 04:24:32;;;;;;;11.32;5.95;;;;;;;7.10;59.58;101115.53;5032429;28;20036;-72
2024/03/14 04:27:06;;;;;;;10.68;6.50;;;;;;;7.22;59.46;101112.69;5029159;28;20048;-71
2024/03/14 04:29:31;;;;;;;11.38;7.28;;;;;;;7.38;58.41;101117.50;5027586;28;20493;-71
2024/03/14 04:31:57;;;;;;;14.32;7.38;;;;;;;7.46;58.82;101110.41;5028907;28;20029;-69
2024/03/14 04:34:23;;;;;;;11.18;6.60;;;;;;;7.50;58.09;101106.84;5025313;28;20675;-71
2024/03/14 04:36:52;;;;;;;12.82;7.40;;;;;;;7.31;58.79;101117.66;5031525;28;20036;-72
2024/03/14 04:39:19;;;;;;;13.18;7.22;;;;;;;7.25;59.40;101117.81;5009727;28;20075;-72
2024/03/14 04:41:48;;;;;;;15.65;7.82;;;;;;;7.37;58.92;101115.81;5034424;28;20060;-72
2024/03/14 04:44:14;;;;;;;12.57;8.05;;;;;;;7.30;59.22;101110.75;5027381;28;20047;-73
2024/03/14 04:46:41;;;;;;;12.73;7.88;;;;;;;7.55;58.33;101115.41;5037244;28;20036;-73
2024/03/14 04:49:08;;;;;;;11.43;7.13;;;;;;;7.37;58.83;101118.41;5027628;28;20090;-72
2024/03/14 04:51:34;;;;;;;14.85;7.53;;;;;;;6.81;60.14;101110.94;5028273;28;20033;-73
2024/03/14 04:54:03;;;;;;;16.55;8.10;;;;;;;7.40;58.74;101110.53;5011750;28;20585;-70
2024/03/14 04:56:31;;;;;;;15.70;7.93;;;;;;;7.20;58.90;101114.47;5027626;28;20147;-70
2024/03/14 04:58:57;;;;;;;11.82;6.65;;;;;;;7.03;59.31;101124.34;5029711;27;20036;-68
2024/03/14 05:01:23;;;;;;;15.40;8.18;;;;;;;7.25;58.98;101107.41;5023059;28;20036;-72
2024/03/14 05:03:49;;;;;;;13.10;7.07;;;;;;;7.17;59.27;101114.50;5032047;28;20048;-69
2024/03/14 05:06:14;;;;;;;14.50;8.40;;;;;;;6.98;59.56;101108.00;5022638;28;20730;-69
2024/03/14 05:08:41;;;;;;;16.23;8.15;;;;;;;7.16;58.82;101107.59;5031186;28;20656;-69
2024/03/14 05:11:06;;;;;;;16.73;8.20;;;;;;;7.00;59.49;101111.41;5021053;28;20071;-73
2024/03/14 05:13:32;;;;;;;15.82;8.77;;;;;;;6.97;59.80;101111.47;5030201;28;20036;-71
2024/03/14 05:15:57;;;;;;;12.15;7.47;;;;;;;7.30;58.59;101115.94;5032915;28;20608;-75
2024/03/14 05:18:23;;;;;;;12.15;6.75;;;;;;;7.05;59.77;101110.44;5032188;28;20047;-75
2024/03/14 05:20:49;;;;;;;14.75;8.15;;;;;;;7.04;59.78;101113.06;5038009;28;20037;-75
2024/03/14 05:23:14;;;;;;;18.05;7.78;;;;;;;7.06;59.42;101103.50;5042351;28;21839;-75
2024/03/14 05:25:40;;;;;;;15.90;8.25;;;;;;;6.64;60.89;101111.28;5035102;28;20040;-69
2024/03/14 05:28:06;;;;;;;13.80;7.63;;;;;;;7.20;59.12;101110.97;5025185;28;20097;-68
2024/03/14 05:30:31;;;;;;;23.20;9.02;;;;;;;6.95;60.39;101118.44;5033873;28;20040;-68
2024/03/14 05:32:59;;;;;;;14.80;8.75;;;;;;;6.65;60.85;101120.78;5032368;28;20086;-67
2024/03/14 05:35:24;;;;;;;18.10;9.10;;;;;;;6.92;60.18;101119.38;5030846;28;20043;-67
2024/03/14 05:37:50;;;;;;;16.80;9.18;;;;;;;6.43;61.62;101113.41;5030386;28;20036;-69
2024/03/14 05:40:16;;;;;;;16.27;8.40;;;;;;;6.77;61.03;101117.94;5027616;28;20029;-65
2024/03/14 05:42:43;;;;;;;14.40;7.95;;;;;;;6.94;60.36;101117.59;5032357;28;20041;-68
2024/03/14 05:45:09;;;;;;;16.35;8.90;;;;;;;6.97;60.01;101121.88;5030959;28;20033;-68
2024/03/14 05:47:35;;;;;;;15.38;8.50;;;;;;;6.64;61.33;101119.94;5033580;28;20094;-68
2024/03/14 05:50:06;;;;;;;16.45;9.55;;;;;;;6.94;60.26;101115.00;5034458;28;20503;-66
2024/03/14 05:52:33;;;;;;;19.03;9.00;;;;;;;6.79;61.09;101123.97;5033738;28;20404;-67
2024/03/14 05:54:58;;;;;;;16.45;9.55;;;;;;;6.75;61.08;101119.72;5032047;28;20286;-68
2024/03/14 05:57:24;;;;;;;14.30;8.88;;;;;;;6.66;61.36;101118.19;5028514;28;20187;-67
2024/03/14 05:59:51;;;;;;;18.23;9.70;;;;;;;6.36;61.95;101119.59;5030321;28;20124;-67
2024/03/14 06:02:22;;;;;;;16.05;8.57;;;;;;;6.70;61.00;101121.56;5024647;28;20035;-66
2024/03/14 06:04:47;;;;;;;17.55;8.88;;;;;;;6.60;61.33;101122.63;5053789;28;20029;-67
2024/03/14 06:07:13;;;;;;;14.80;8.52;;;;;;;6.62;61.20;101120.84;5026435;28;20095;-68
2024/03/14 06:09:42;;;;;;;15.45;9.30;;;;;;;6.72;61.11;101122.38;5028913;28;20086;-66
2024/03/14 06:12:12;;;;;;;16.55;9.45;;;;;;;6.99;60.05;101120.09;5015163;28;20036;-75
2024/03/14 06:14:41;;;;;;;13.77;8.95;;;;;;;6.51;61.42;101118.47;5037257;28;20034;-74
2024/03/14 06:17:12;;;;;;;15.73;9.55;;;;;;;7.00;59.97;101122.69;5023243;27;20213;-76
2024/03/14 06:19:40;;;;;;;16.63;9.73;;;;;;;6.98;59.87;101129.66;5043193;28;20036;-75
2024/03/14 06:22:08;;;;;;;13.82;9.07;;;;;;;6.57;60.83;101128.72;5032738;28;20028;-77
2024/03/14 06:24:34;;;;;;;16.15;9.50;;;;;;;6.66;60.64;101127.69;5027842;28;20498;-68
2024/03/14 06:27:14;;;;;;;14.82;8.18;;;;;;;6.93;59.83;101121.06;5022821;28;20033;-68
2024/03/14 06:29:45;;;;;;;13.48;7.72;;;;;;;6.54;60.89;101121.00;5028278;28;20617;-74
2024/03/14 06:32:16;;;;;;;15.75;7.65;;;;;;;6.68;61.16;101131.09;5021469;28;20060;-72
2024/03/14 06:34:44;;;;;;;11.53;7.63;;;;;;;6.63;60.46;101118.22;5058173;28;20036;-73
2024/03/14 06:37:11;;;;;;;13.45;8.10;;;;;;;6.85;60.24;101128.19;5013334;28;20511;-73
2024/03/14 06:39:40;;;;;;;16.08;8.40;;;;;;;7.36;58.86;101120.16;5052047;28;20059;-72
2024/03/14 06:42:06;;;;;;;12.77;7.68;;;;;;;7.67;57.94;101128.16;5027345;28;20086;-72
2024/03/14 06:44:32;;;;;;;13.40;7.15;;;;;;;7.66;57.41;101125.56;5056273;28;20033;-72
2024/03/14 06:46:57;;;;;;;14.02;7.75;;;;;;;7.40;58.23;101128.72;5030997;28;20078;-74
2024/03/14 06:49:23;;;;;;;11.43;7.72;;;;;;;7.48;58.46;101124.22;5009577;28;20041;-71
2024/03/14 06:51:50;;;;;;;12.60;7.35;;;;;;;7.12;59.23;101124.16;5026156;28;20927;-72
2024/03/14 06:54:25;;;;;;;11.48;8.20;;;;;;;6.96;59.82;101130.56;5015286;28;20124;-70
2024/03/14 06:56:53;;;;;;;11.27;6.65;;;;;;;7.28;58.84;101128.13;5028953;28;20128;-73
2024/03/14 06:59:18;;;;;;;13.18;7.22;;;;;;;6.83;61.01;101128.22;5015257;28;20051;-70
2024/03/14 07:01:46;;;;;;;11.20;6.35;;;;;;;7.13;59.19;101131.06;5033044;28;20037;-70
2024/03/14 07:04:20;;;;;;;9.85;6.93;;;;;;;6.95;59.75;101134.03;5026177;28;20771;-72
2024/03/14 07:06:51;;;;;;;8.90;6.43;;;;;;;6.81;60.67;101129.97;5030003;28;20041;-71
2024/03/14 07:09:26;;;;;;;11.10;6.60;;;;;;;6.99;59.77;101127.91;5026039;28;20046;-72
2024/03/14 07:11:54;;;;;;;13.65;6.57;;;;;;;7.66;58.08;101129.03;5019119;28;20029;-67
2024/03/14 07:14:22;;;;;;;10.98;7.25;;;;;;;7.71;57.71;101132.38;5022722;28;20032;-73
2024/03/14 07:16:53;;;;;;;8.77;6.57;;;;;;;7.88;57.08;101125.91;5031653;28;20047;-71
2024/03/14 07:19:21;;;;;;;10.80;5.88;;;;;;;8.50;55.49;101136.44;5021217;28;20113;-72
2024/03/14 07:21:50;;;;;;;9.95;5.85;;;;;;;8.66;55.31;101129.06;5032507;28;20029;-70
2024/03/14 07:24:17;;;;;;;8.32;5.43;;;;;;;9.32;53.32;101116.75;5024305;28;20036;-70
2024/03/14 07:26:46;;;;;;;8.68;6.05;;;;;;;9.11;53.98;101125.19;5033138;28;20044;-69
2024/03/14 07:29:12;;;;;;;8.98;6.32;;;;;;;8.64;54.63;101125.63;5028258;28;20029;-68
2024/03/14 07:31:38;;;;;;;8.32;6.13;;;;;;;9.79;52.16;101118.75;5026869;28;20993;-69
2024/03/14 07:34:06;;;;;;;8.32;5.85;;;;;;;11.18;49.43;101119.97;5025062;28;20145;-71
2024/03/14 07:36:36;;;;;;;8.93;5.97;;;;;;;10.35;50.27;101117.75;5023566;28;20639;-72
2024/03/14 07:39:06;;;;;;;7.22;4.78;;;;;;;9.44;51.83;101122.47;5028746;27;20102;-72
2024/03/14 07:41:31;;;;;;;8.15;6.13;;;;;;;9.21;52.68;101130.97;5020398;28;20021;-69
2024/03/14 07:44:09;;;;;;;8.55;6.07;;;;;;;8.41;54.98;101126.28;5022089;28;20071;-70
2024/03/14 07:46:35;;;;;;;8.77;5.43;;;;;;;7.80;57.22;101128.72;5020550;28;20051;-69
2024/03/14 07:49:02;;;;;;;7.10;5.22;;;;;;;7.66;57.38;101122.97;5029893;27;20044;-69
2024/03/14 07:51:34;;;;;;;9.65;6.75;;;;;;;8.31;56.24;101124.81;5021393;28;20735;-69
2024/03/14 07:53:59;;;;;;;10.73;6.07;;;;;;;9.31;54.01;101124.59;5032120;28;20598;-70
2024/03/14 07:56:25;;;;;;;11.25;6.45;;;;;;;8.93;54.29;101121.38;5018493;28;20037;-70
2024/03/14 07:58:53;;;;;;;8.25;5.28;;;;;;;8.89;54.83;101131.03;5027591;28;20143;-69
2024/03/14 08:01:19;;;;;;;7.63;5.97;;;;;;;8.93;54.54;101137.88;5019374;28;20040;-67
2024/03/14 08:03:48;;;;;;;11.18;7.05;;;;;;;9.23;53.52;101129.19;5016988;28;20485;-67
2024/03/14 08:06:19;;;;;;;10.57;7.60;;;;;;;9.19;53.35;101136.28;5026241;28;20141;-69
2024/03/14 08:08:45;;;;;;;8.70;6.57;;;;;;;9.22;54.03;101143.16;5029156;28;20513;-70
2024/03/14 08:11:13;;;;;;;14.20;6.47;;;;;;;9.13;54.31;101145.13;5032948;28;20029;-68
2024/03/14 08:13:43;;;;;;;9.93;6.85;;;;;;;9.89;52.60;101145.41;5012649;28;20506;-71
2024/03/14 08:16:14;;;;;;;11.93;7.15;;;;;;;9.51;52.43;101139.63;5026544;28;20131;-70
2024/03/14 08:18:43;;;;;;;9.38;6.53;;;;;;;9.77;52.48;101142.28;5022576;28;20457;-70
2024/03/14 08:21:12;;;;;;;9.15;6.18;;;;;;;9.62;53.36;101128.88;5032827;28;20048;-67
2024/03/14 08:23:41;;;;;;;8.10;5.85;;;;;;;9.73;52.89;101138.06;5035178;28;21293;-70
2024/03/14 08:26:07;;;;;;;13.02;6.38;;;;;;;10.21;52.08;101137.38;5026585;28;20064;-67
2024/03/14 08:28:34;;;;;;;11.27;7.05;;;;;;;9.38;53.48;101140.00;5019179;28;20040;-70
2024/03/14 08:31:01;;;;;;;9.30;6.53;;;;;;;10.08;51.33;101137.81;5025977;28;20074;-67
2024/03/14 08:33:26;;;;;;;7.47;6.53;;;;;;;9.84;52.24;101142.13;5018522;28;20071;-70
2024/03/14 08:35:53;;;;;;;10.38;7.10;;;;;;;10.16;51.62;101131.44;5033559;28;20111;-70
2024/03/14 08:38:21;;;;;;;9.20;6.25;;;;;;;10.55;50.48;101136.19;5019939;28;20040;-68
2024/03/14 08:40:49;;;;;;;9.00;6.65;;;;;;;9.29;53.20;101134.22;5034556;28;20021;-68
2024/03/14 08:43:19;;;;;;;9.60;7.50;;;;;;;9.15;53.92;101132.03;5028639;28;20553;-70
2024/03/14 08:45:45;;;;;;;8.88;7.53;;;;;;;10.20;51.62;101135.66;5020751;28;21077;-68
2024/03/14 08:48:13;;;;;;;10.77;7.13;;;;;;;10.43;50.58;101134.84;5020618;28;20040;-68
2024/03/14 08:50:46;;;;;;;8.73;6.38;;;;;;;11.15;49.69;101135.75;5016661;28;20882;-70
2024/03/14 08:53:17;;;;;;;9.38;6.20;;;;;;;11.46;48.21;101135.41;5031251;28;20033;-67
2024/03/14 08:55:52;;;;;;;9.15;6.95;;;;;;;11.08;50.82;101139.53;5015393;28;20064;-68
2024/03/14 08:58:19;;;;;;;9.15;5.82;;;;;;;11.91;47.61;101133.66;5024130;28;20040;-67
2024/03/14 09:00:44;;;;;;;9.20;6.25;;;;;;;12.91;45.44;101130.19;5016638;28;20032;-68
2024/03/14 09:03:15;;;;;;;9.68;5.78;;;;;;;12.22;46.09;101128.84;5031242;28;20055;-68
2024/03/14 09:05:50;;;;;;;8.52;5.88;;;;;;;12.65;45.69;101134.81;5022986;28;21353;-72
2024/03/14 09:08:21;;;;;;;9.63;5.63;;;;;;;11.19;49.26;101134.72;5029055;28;20037;-67
2024/03/14 09:10:53;;;;;;;8.82;7.15;;;;;;;10.03;50.95;101127.53;5011801;28;20025;-68
2024/03/14 09:13:23;;;;;;;10.02;6.05;;;;;;;9.56;52.92;101135.13;5025374;28;20041;-69
2024/03/14 09:15:50;;;;;;;8.10;6.32;;;;;;;11.47;49.15;101126.66;5018583;28;20032;-66
2024/03/14 09:18:17;;;;;;;10.45;6.53;;;;;;;11.57;48.30;101135.00;5032137;28;20714;-68
2024/03/14 09:20:48;;;;;;;9.93;6.32;;;;;;;11.62;48.19;101139.13;5014070;28;20153;-66
2024/03/14 09:23:25;;;;;;;8.20;6.38;;;;;;;11.33;49.12;101134.19;5015575;28;20040;-67
2024/03/14 09:25:53;;;;;;;9.18;7.07;;;;;;;11.33;48.94;101134.19;5012926;28;20111;-67
2024/03/14 09:28:25;;;;;;;11.93;6.82;;;;;;;12.27;46.76;101126.88;5027109;28;20040;-67
2024/03/14 09:30:57;;;;;;;9.02;6.07;;;;;;;11.96;47.07;101121.22;5004020;28;20029;-67
2024/03/14 09:33:27;;;;;;;7.90;6.03;;;;;;;11.95;46.79;101124.75;5025948;28;20126;-67
2024/03/14 09:35:52;;;;;;;9.38;6.45;;;;;;;12.07;46.95;101125.09;5018798;28;20063;-68
2024/03/14 09:38:23;;;;;;;11.00;6.32;;;;;;;11.61;47.70;101110.41;5026591;28;20070;-66
2024/03/14 09:40:51;;;;;;;8.57;6.43;;;;;;;11.20;49.26;101124.22;5017594;28;20755;-66
2024/03/14 09:43:19;;;;;;;10.57;6.80;;;;;;;11.30;49.45;101124.69;5027474;28;20047;-66
2024/03/14 09:45:48;;;;;;;9.02;6.55;;;;;;;11.62;49.07;101122.56;5015866;28;20487;-68
2024/03/14 09:48:19;;;;;;;8.05;5.68;;;;;;;11.43;48.92;101125.91;5026735;28;20541;-67
2024/03/14 09:50:51;;;;;;;9.32;5.93;;;;;;;11.74;48.46;101119.47;5000802;28;20906;-67
2024/03/14 09:53:26;;;;;;;9.82;5.55;;;;;;;11.72;48.97;101123.91;5027408;28;20105;-68
2024/03/14 09:55:53;;;;;;;11.20;7.13;;;;;;;12.01;47.92;101114.03;5022828;28;20032;-68
2024/03/14 09:58:28;;;;;;;9.10;6.07;;;;;;;12.82;46.34;101130.59;5024867;28;20044;-68
2024/03/14 10:00:54;;;;;;;10.55;6.35;;;;;;;11.97;48.21;101120.28;5025968;28;20033;-68
2024/03/14 10:03:22;;;;;;;8.23;6.10;;;;;;;11.78;48.01;101115.84;5031646;28;20578;-69
2024/03/14 10:05:51;;;;;;;9.05;5.95;;;;;;;12.52;46.96;101122.31;5022337;28;20031;-70
2024/03/14 10:08:27;;;;;;;7.55;5.88;;;;;;;12.84;46.54;101121.75;5026895;28;20044;-69
2024/03/14 10:10:52;;;;;;;10.60;5.57;;;;;;;12.04;47.28;101117.38;5027685;28;20029;-70
2024/03/14 10:13:25;;;;;;;10.07;6.35;;;;;;;11.93;48.68;101113.47;5029430;28;20037;-68
2024/03/14 10:15:55;;;;;;;11.13;5.97;;;;;;;11.52;49.06;101123.88;5025842;28;20036;-68
2024/03/14 10:18:25;;;;;;;7.40;6.07;;;;;;;11.62;49.28;101115.59;5032049;28;20073;-69
2024/03/14 10:20:52;;;;;;;10.18;6.32;;;;;;;11.12;50.31;101121.03;5023572;28;22279;-71
2024/03/14 10:23:20;;;;;;;7.55;5.63;;;;;;;11.45;49.33;101108.41;5025394;28;20658;-70
2024/03/14 10:25:53;;;;;;;11.27;6.38;;;;;;;11.12;50.07;101115.81;5016853;28;20064;-68
2024/03/14 10:28:36;;;;;;;8.15;5.50;;;;;;;10.70;50.83;101107.78;5020316;28;20029;-66
2024/03/14 10:31:05;;;;;;;12.00;5.75;;;;;;;11.79;48.87;101107.03;5029646;28;20101;-69
2024/03/14 10:33:32;;;;;;;11.93;7.18;;;;;;;11.75;48.96;101110.66;5017878;28;20045;-67
2024/03/14 10:36:03;;;;;;;11.88;7.03;;;;;;;12.02;49.02;101103.50;5027759;28;20123;-66
2024/03/14 10:38:35;;;;;;;10.35;6.50;;;;;;;12.21;48.75;101098.28;5010150;28;20041;-69
2024/03/14 10:41:02;;;;;;;10.40;6.22;;;;;;;12.39;47.20;101101.03;5030700;28;20036;-70
2024/03/14 10:43:39;;;;;;;12.77;6.28;;;;;;;13.58;46.38;101099.91;5004588;28;20059;-69
2024/03/14 10:46:19;;;;;;;9.63;6.03;;;;;;;13.70;45.02;101098.47;5043865;28;20020;-67
2024/03/14 10:48:50;;;;;;;10.70;6.30;;;;;;;12.87;45.70;101094.50;5019211;28;20040;-67
2024/03/14 10:51:17;;;;;;;10.00;6.18;;;;;;;12.82;46.74;101101.75;5027876;28;20086;-67
2024/03/14 10:53:50;;;;;;;13.50;6.05;;;;;;;12.63;47.32;101093.84;5017452;28;20029;-67
2024/03/14 10:56:22;;;;;;;9.13;6.10;;;;;;;13.18;45.98;101096.56;5030722;28;20099;-67
2024/03/14 10:59:02;;;;;;;8.70;5.30;;;;;;;12.37;46.94;101100.25;5035217;27;20043;-67
2024/03/14 11:01:31;;;;;;;11.40;6.50;;;;;;;12.37;46.87;101095.00;5027451;28;20033;-67
2024/03/14 11:03:59;;;;;;;8.05;5.72;;;;;;;12.41;47.19;101094.81;5023679;28;20987;-67
2024/03/14 11:06:33;;;;;;;8.80;6.03;;;;;;;12.39;46.82;101085.31;5035200;28;20032;-67
2024/03/14 11:09:03;;;;;;;9.13;6.68;;;;;;;12.83;46.21;101085.94;5014585;28;20044;-69
2024/03/14 11:11:35;;;;;;;9.30;5.80;;;;;;;12.02;47.59;101090.38;5026384;28;20044;-68
2024/03/14 11:14:07;;;;;;;8.98;6.03;;;;;;;12.31;47.59;101090.88;5030362;28;20522;-67
2024/03/14 11:16:33;;;;;;;7.60;6.00;;;;;;;13.62;45.10;101083.09;5034272;28;20037;-68
2024/03/14 11:19:03;;;;;;;9.10;6.20;;;;;;;13.07;45.17;101086.59;5041054;28;21776;-67
2024/03/14 11:21:35;;;;;;;10.55;5.60;;;;;;;12.57;46.26;101087.09;5036526;28;20025;-67
2024/03/14 11:24:12;;;;;;;9.00;5.95;;;;;;;12.70;46.53;101083.03;5026097;28;20029;-67
2024/03/14 11:26:43;;;;;;;8.77;5.47;;;;;;;13.16;45.73;101080.06;5023639;28;20174;-68
2024/03/14 11:29:15;;;;;;;8.13;5.53;;;;;;;12.55;46.38;101077.59;5023015;28;20033;-67
2024/03/14 11:31:45;;;;;;;6.72;5.28;;;;;;;13.67;44.70;101074.97;5024823;28;20120;-69